Time;durP1;ratioP1;P1;durP2;ratioP2;P2;SDS_P1;SDS_P2;PMS_P1;PMS_P2;Temp;Humidity;BMP_temperature;BMP_pressure;BME280_temperature;BME280_humidity;BME280_pressure;Samples;Min_cycle;Max_cycle;Signal;HPM_P1;HPM_P2
2022/07/24 00:00:08;;;;;;;4.47;2.83;;;19.10;99.90;;;;;;5077782;28;20209;-65
2022/07/24 00:02:34;;;;;;;5.28;4.03;;;19.10;99.90;;;;;;5095650;28;20223;-65
2022/07/24 00:05:01;;;;;;;4.88;3.42;;;19.10;99.90;;;;;;5077479;28;20569;-65
2022/07/24 00:07:27;;;;;;;4.22;2.90;;;19.10;99.90;;;;;;5095540;28;20174;-65
2022/07/24 00:09:53;;;;;;;6.63;3.80;;;19.10;99.90;;;;;;5095634;28;20231;-65
2022/07/24 00:12:19;;;;;;;5.63;3.30;;;19.10;99.90;;;;;;5077147;28;20269;-65
2022/07/24 00:14:48;;;;;;;4.03;3.35;;;19.00;99.90;;;;;;5095476;28;20624;-65
2022/07/24 00:17:13;;;;;;;4.43;3.15;;;18.90;99.90;;;;;;5095478;28;20174;-66
2022/07/24 00:19:39;;;;;;;4.50;2.95;;;18.80;99.90;;;;;;5095369;28;20177;-65
2022/07/24 00:22:05;;;;;;;3.50;2.92;;;18.80;99.90;;;;;;5077129;28;20177;-64
2022/07/24 00:24:30;;;;;;;5.43;3.47;;;18.80;99.90;;;;;;5095104;28;20281;-64
2022/07/24 00:26:56;;;;;;;5.40;3.65;;;18.80;99.90;;;;;;5077122;28;20173;-65
2022/07/24 00:29:24;;;;;;;5.32;3.70;;;18.80;99.90;;;;;;5094964;28;20639;-65
2022/07/24 00:31:54;;;;;;;5.80;3.88;;;18.60;99.90;;;;;;5095115;28;20265;-65
2022/07/24 00:34:19;;;;;;;5.75;3.90;;;18.30;99.90;;;;;;5094878;28;20200;-65
2022/07/24 00:36:45;;;;;;;6.82;4.07;;;18.30;99.90;;;;;;5076890;28;20597;-65
2022/07/24 00:39:11;;;;;;;6.75;4.10;;;18.40;99.90;;;;;;5076750;28;20586;-65
2022/07/24 00:41:37;;;;;;;7.43;4.20;;;18.40;99.90;;;;;;5094642;28;20262;-65
2022/07/24 00:44:07;;;;;;;7.65;4.28;;;18.40;99.90;;;;;;5094893;28;20170;-65
2022/07/24 00:46:34;;;;;;;6.72;4.90;;;18.40;99.90;;;;;;5094845;28;20170;-65
2022/07/24 00:48:59;;;;;;;7.43;4.65;;;18.40;99.90;;;;;;5094615;28;20174;-65
2022/07/24 00:51:25;;;;;;;7.63;4.63;;;18.30;99.90;;;;;;5076690;28;20585;-65
2022/07/24 00:53:51;;;;;;;6.95;4.53;;;18.30;99.90;;;;;;5094483;28;20660;-65
2022/07/24 00:56:17;;;;;;;7.30;4.72;;;18.30;99.90;;;;;;5076434;28;20200;-64
2022/07/24 00:58:46;;;;;;;6.47;4.45;;;18.30;99.90;;;;;;5060075;28;20628;-65
2022/07/24 01:01:11;;;;;;;7.57;4.95;;;18.20;99.90;;;;;;5094618;28;20173;-65
2022/07/24 01:03:37;;;;;;;7.43;4.72;;;18.30;99.90;;;;;;5076847;28;20174;-65
2022/07/24 01:06:03;;;;;;;9.30;5.40;;;18.30;99.90;;;;;;5094467;28;20254;-65
2022/07/24 01:08:29;;;;;;;7.32;4.63;;;18.30;99.90;;;;;;5094179;28;20180;-64
2022/07/24 01:10:56;;;;;;;8.10;5.13;;;18.30;99.90;;;;;;5058823;28;20212;-65
2022/07/24 01:13:22;;;;;;;6.95;4.15;;;18.30;99.90;;;;;;5094399;28;20262;-65
2022/07/24 01:15:48;;;;;;;8.00;4.75;;;18.20;99.90;;;;;;5075975;28;20202;-65
2022/07/24 01:18:17;;;;;;;7.75;4.85;;;18.20;99.90;;;;;;5094150;28;20315;-65
2022/07/24 01:20:47;;;;;;;6.07;4.13;;;18.10;99.90;;;;;;5076547;28;20178;-65
2022/07/24 01:23:13;;;;;;;6.78;4.78;;;18.10;99.90;;;;;;5075968;28;20170;-65
2022/07/24 01:25:40;;;;;;;7.32;4.72;;;17.90;99.90;;;;;;5094127;28;20185;-64
2022/07/24 01:28:06;;;;;;;7.82;5.30;;;17.90;99.90;;;;;;5059534;28;20174;-65
2022/07/24 01:30:32;;;;;;;7.68;4.40;;;17.90;99.90;;;;;;5094410;28;20197;-65
2022/07/24 01:32:58;;;;;;;7.07;4.40;;;17.80;99.90;;;;;;5093893;28;20208;-65
2022/07/24 01:35:27;;;;;;;8.15;5.00;;;17.90;99.90;;;;;;5093744;28;20201;-65
2022/07/24 01:37:53;;;;;;;6.07;4.47;;;17.90;99.90;;;;;;5093740;28;20660;-65
2022/07/24 01:40:20;;;;;;;8.48;5.25;;;17.80;99.90;;;;;;5093672;28;20647;-65
2022/07/24 01:42:45;;;;;;;7.63;4.82;;;17.90;99.90;;;;;;5076059;28;20208;-64
2022/07/24 01:45:13;;;;;;;7.38;4.25;;;17.90;99.90;;;;;;5093871;28;20217;-65
2022/07/24 01:47:40;;;;;;;7.25;4.82;;;17.90;99.90;;;;;;5093750;28;20219;-65
2022/07/24 01:50:06;;;;;;;8.45;4.68;;;17.90;99.90;;;;;;5093043;28;20281;-65
2022/07/24 01:52:32;;;;;;;6.55;4.60;;;17.80;99.90;;;;;;5093704;28;20174;-65
2022/07/24 01:54:58;;;;;;;7.40;4.65;;;17.80;99.90;;;;;;5093676;28;20212;-65
2022/07/24 01:57:23;;;;;;;6.53;4.35;;;17.70;99.90;;;;;;5058853;28;20186;-65
2022/07/24 01:59:49;;;;;;;6.25;4.07;;;17.70;99.90;;;;;;5093446;28;20230;-65
2022/07/24 02:02:15;;;;;;;6.38;4.50;;;17.70;99.90;;;;;;5093563;28;20174;-65
2022/07/24 02:04:40;;;;;;;5.97;4.40;;;17.70;99.90;;;;;;5093426;28;20546;-65
2022/07/24 02:07:06;;;;;;;7.95;4.60;;;17.80;99.90;;;;;;5093381;28;20177;-65
2022/07/24 02:09:32;;;;;;;5.68;4.05;;;17.90;99.90;;;;;;5093306;28;20589;-65
2022/07/24 02:11:57;;;;;;;6.78;3.67;;;17.90;99.90;;;;;;5093571;28;20177;-65
2022/07/24 02:14:23;;;;;;;6.22;3.78;;;17.90;99.90;;;;;;5093310;28;20288;-65
2022/07/24 02:16:49;;;;;;;5.45;3.67;;;17.90;99.90;;;;;;5093350;28;20180;-65
2022/07/24 02:19:14;;;;;;;6.90;4.03;;;17.90;99.90;;;;;;5093200;28;20184;-65
2022/07/24 02:21:40;;;;;;;5.15;3.60;;;17.90;99.90;;;;;;5076124;28;20172;-64
2022/07/24 02:24:06;;;;;;;7.13;3.45;;;17.90;99.90;;;;;;5097606;28;20189;-65
2022/07/24 02:26:32;;;;;;;5.47;3.88;;;17.80;99.90;;;;;;5079279;28;20185;-67
2022/07/24 02:28:58;;;;;;;5.60;3.97;;;17.80;99.90;;;;;;5079404;28;20178;-65
2022/07/24 02:31:23;;;;;;;4.95;3.58;;;17.70;99.90;;;;;;5079238;28;20223;-65
2022/07/24 02:33:49;;;;;;;5.28;3.38;;;17.60;99.90;;;;;;5097203;28;20243;-65
2022/07/24 02:36:15;;;;;;;4.50;3.58;;;17.70;99.90;;;;;;5097434;28;20534;-65
2022/07/24 02:38:42;;;;;;;6.65;3.78;;;17.70;99.90;;;;;;5079275;28;20166;-65
2022/07/24 02:41:08;;;;;;;5.15;3.47;;;17.60;99.90;;;;;;5097282;28;20226;-65
2022/07/24 02:43:34;;;;;;;5.53;4.15;;;17.60;99.90;;;;;;5097241;28;20170;-65
2022/07/24 02:45:59;;;;;;;5.70;3.88;;;17.40;99.90;;;;;;5062354;28;20178;-65
2022/07/24 02:48:25;;;;;;;6.30;3.83;;;17.40;99.90;;;;;;5096986;28;20616;-65
2022/07/24 02:50:52;;;;;;;6.13;3.67;;;17.30;99.90;;;;;;5096971;28;20174;-65
2022/07/24 02:53:17;;;;;;;6.05;4.05;;;17.40;99.90;;;;;;5079034;28;20174;-65
2022/07/24 02:55:43;;;;;;;5.32;3.55;;;17.30;99.90;;;;;;5078680;28;20213;-65
2022/07/24 02:58:10;;;;;;;4.75;3.60;;;17.30;99.90;;;;;;5096907;28;20635;-65
2022/07/24 03:00:35;;;;;;;5.72;3.95;;;17.30;99.90;;;;;;5078557;28;20520;-65
2022/07/24 03:03:01;;;;;;;5.90;4.10;;;17.30;99.90;;;;;;5096645;28;20252;-65
2022/07/24 03:05:30;;;;;;;4.97;3.63;;;17.30;99.90;;;;;;5078373;28;20615;-66
2022/07/24 03:07:56;;;;;;;4.57;3.38;;;17.40;99.90;;;;;;5096730;28;20209;-66
2022/07/24 03:10:22;;;;;;;5.95;3.80;;;17.40;99.90;;;;;;5096459;28;20272;-65
2022/07/24 03:12:48;;;;;;;4.93;3.78;;;17.40;99.90;;;;;;5096583;28;20209;-66
2022/07/24 03:15:15;;;;;;;6.07;3.70;;;17.30;99.90;;;;;;5096363;28;20288;-65
2022/07/24 03:17:55;;;;;;;5.78;3.90;;;17.30;99.90;;;;;;5096325;28;20184;-65
2022/07/24 03:20:22;;;;;;;6.50;3.35;;;17.30;99.90;;;;;;5096484;28;20196;-66
2022/07/24 03:22:49;;;;;;;4.97;3.42;;;17.30;99.90;;;;;;5096299;28;20632;-65
2022/07/24 03:25:15;;;;;;;8.05;3.75;;;17.30;99.90;;;;;;5096350;28;20231;-66
2022/07/24 03:27:41;;;;;;;7.05;4.00;;;17.20;99.90;;;;;;5078256;28;20175;-65
2022/07/24 03:30:08;;;;;;;4.95;3.20;;;17.10;99.90;;;;;;5096142;28;20173;-65
2022/07/24 03:32:33;;;;;;;4.45;3.65;;;17.00;99.90;;;;;;5077629;28;20569;-65
2022/07/24 03:34:59;;;;;;;6.43;3.67;;;17.00;99.90;;;;;;5096209;28;20260;-66
2022/07/24 03:37:25;;;;;;;4.70;3.67;;;17.00;99.90;;;;;;5096190;28;20182;-66
2022/07/24 03:39:50;;;;;;;5.03;3.85;;;17.00;99.90;;;;;;5096085;28;20201;-65
2022/07/24 03:42:20;;;;;;;5.50;3.72;;;17.00;99.90;;;;;;5077853;28;20538;-65
2022/07/24 03:44:45;;;;;;;4.57;3.17;;;16.90;99.90;;;;;;5095857;28;20185;-65
2022/07/24 03:47:11;;;;;;;4.28;2.97;;;16.90;99.90;;;;;;5095990;28;20170;-66
2022/07/24 03:49:37;;;;;;;6.18;3.75;;;16.80;99.90;;;;;;5061114;28;20185;-65
2022/07/24 03:52:03;;;;;;;5.18;3.55;;;16.90;99.90;;;;;;5095922;28;20174;-66
2022/07/24 03:54:29;;;;;;;4.28;2.95;;;16.90;99.90;;;;;;5077884;28;20276;-65
2022/07/24 03:56:54;;;;;;;4.70;3.17;;;16.80;99.90;;;;;;5077697;28;20308;-66
2022/07/24 03:59:20;;;;;;;6.07;2.97;;;16.80;99.90;;;;;;5061020;28;20175;-65
2022/07/24 04:01:46;;;;;;;4.30;3.00;;;16.90;99.90;;;;;;5095841;28;20683;-66
2022/07/24 04:04:12;;;;;;;4.20;3.10;;;16.90;99.90;;;;;;5095625;28;20622;-66
2022/07/24 04:06:37;;;;;;;4.68;3.20;;;16.90;99.90;;;;;;5095666;28;20205;-66
2022/07/24 04:09:04;;;;;;;3.92;2.72;;;16.80;99.90;;;;;;5077563;28;20170;-66
2022/07/24 04:11:30;;;;;;;3.88;2.78;;;16.90;99.90;;;;;;5095323;28;20181;-65
2022/07/24 04:13:57;;;;;;;5.22;2.92;;;16.90;99.90;;;;;;5095143;28;20167;-65
2022/07/24 04:16:22;;;;;;;4.85;3.03;;;16.90;99.90;;;;;;5077657;28;20174;-66
2022/07/24 04:18:48;;;;;;;4.10;3.00;;;16.80;99.90;;;;;;5077499;28;20239;-66
2022/07/24 04:21:14;;;;;;;5.10;3.30;;;16.80;99.90;;;;;;5095203;28;20177;-66
2022/07/24 04:23:40;;;;;;;4.30;2.70;;;16.90;99.90;;;;;;5077004;28;20174;-65
2022/07/24 04:26:06;;;;;;;5.47;3.20;;;16.90;99.90;;;;;;5095124;28;20174;-66
2022/07/24 04:28:32;;;;;;;4.82;3.05;;;16.90;99.90;;;;;;5094994;28;20177;-65
2022/07/24 04:30:57;;;;;;;4.57;2.78;;;16.90;99.90;;;;;;5095109;28;20173;-66
2022/07/24 04:33:23;;;;;;;3.65;2.55;;;16.90;99.90;;;;;;5077145;28;20580;-66
2022/07/24 04:35:49;;;;;;;4.95;2.80;;;16.90;99.90;;;;;;5094996;28;20280;-66
2022/07/24 04:38:15;;;;;;;5.15;2.72;;;17.00;99.90;;;;;;5094742;28;20284;-65
2022/07/24 04:40:41;;;;;;;4.53;2.53;;;17.00;99.90;;;;;;5094881;28;20169;-65
2022/07/24 04:43:08;;;;;;;4.15;3.00;;;17.00;99.90;;;;;;5094708;28;20639;-66
2022/07/24 04:45:33;;;;;;;4.60;2.70;;;17.00;99.90;;;;;;5094013;28;20577;-66
2022/07/24 04:47:59;;;;;;;3.80;2.67;;;17.00;99.90;;;;;;5094859;28;20170;-66
2022/07/24 04:50:25;;;;;;;4.60;3.00;;;17.00;99.90;;;;;;5076678;28;20174;-66
2022/07/24 04:52:50;;;;;;;3.30;2.45;;;17.10;99.90;;;;;;5094651;28;20683;-66
2022/07/24 04:55:16;;;;;;;4.00;2.70;;;17.20;99.90;;;;;;5076472;28;20201;-66
2022/07/24 04:57:42;;;;;;;3.42;2.53;;;17.20;99.90;;;;;;5059596;28;20178;-65
2022/07/24 05:00:11;;;;;;;4.53;3.15;;;17.20;99.90;;;;;;5076422;28;20265;-65
2022/07/24 05:02:36;;;;;;;3.85;2.40;;;17.40;99.90;;;;;;5076293;28;20535;-65
2022/07/24 05:05:02;;;;;;;3.35;2.40;;;17.30;99.90;;;;;;5076499;28;20177;-65
2022/07/24 05:07:28;;;;;;;3.40;2.10;;;17.30;99.90;;;;;;5094359;28;20174;-66
2022/07/24 05:09:54;;;;;;;3.88;3.00;;;17.30;99.90;;;;;;5094442;28;20189;-65
2022/07/24 05:12:19;;;;;;;3.10;2.42;;;17.40;99.90;;;;;;5094145;28;20174;-65
2022/07/24 05:14:45;;;;;;;5.68;2.70;;;17.50;99.90;;;;;;5076269;28;20231;-65
2022/07/24 05:17:11;;;;;;;3.08;2.22;;;17.60;99.90;;;;;;5076435;28;20196;-66
2022/07/24 05:19:36;;;;;;;3.58;2.33;;;17.60;99.90;;;;;;5094112;28;20177;-66
2022/07/24 05:22:02;;;;;;;3.70;2.53;;;17.70;99.90;;;;;;5094122;28;20174;-65
2022/07/24 05:24:28;;;;;;;3.45;2.13;;;17.70;99.90;;;;;;5075524;28;20657;-64
2022/07/24 05:26:54;;;;;;;3.63;2.40;;;17.80;99.90;;;;;;5075816;28;20170;-65
2022/07/24 05:29:20;;;;;;;4.00;2.80;;;17.80;99.90;;;;;;5093943;28;20181;-65
2022/07/24 05:31:46;;;;;;;4.07;2.13;;;17.90;99.90;;;;;;5075605;28;20201;-65
2022/07/24 05:34:12;;;;;;;3.25;2.10;;;17.90;99.90;;;;;;5075441;28;20566;-65
2022/07/24 05:36:38;;;;;;;3.08;2.50;;;17.90;99.90;;;;;;5075560;28;20627;-65
2022/07/24 05:39:04;;;;;;;4.15;2.00;;;18.00;99.90;;;;;;5093733;28;20178;-65
2022/07/24 05:41:30;;;;;;;3.50;2.08;;;18.10;99.90;;;;;;5075548;28;20185;-65
2022/07/24 05:43:55;;;;;;;3.08;2.03;;;18.30;99.90;;;;;;5093805;28;20166;-65
2022/07/24 05:46:21;;;;;;;2.83;1.95;;;18.40;99.90;;;;;;5093646;28;20261;-64
2022/07/24 05:48:47;;;;;;;3.38;2.30;;;18.60;99.90;;;;;;5075511;28;20248;-65
2022/07/24 05:51:13;;;;;;;3.00;2.05;;;18.50;99.90;;;;;;5093530;28;20627;-65
2022/07/24 05:53:38;;;;;;;3.42;2.53;;;18.60;99.90;;;;;;5075474;28;20169;-65
2022/07/24 05:56:04;;;;;;;2.33;1.80;;;18.70;99.90;;;;;;5058347;28;20228;-65
2022/07/24 05:58:30;;;;;;;3.97;2.08;;;18.90;99.90;;;;;;5092073;28;20570;-64
2022/07/24 06:00:56;;;;;;;3.00;1.88;;;19.10;99.90;;;;;;5090770;28;20209;-67
2022/07/24 06:03:21;;;;;;;2.88;2.00;;;19.30;99.90;;;;;;5092788;28;20205;-65
2022/07/24 06:05:47;;;;;;;2.58;1.73;;;19.30;99.90;;;;;;5093256;28;20174;-65
2022/07/24 06:08:13;;;;;;;3.72;2.38;;;19.50;99.90;;;;;;5075002;28;20190;-65
2022/07/24 06:10:38;;;;;;;3.80;2.35;;;19.60;99.90;;;;;;5093217;28;20193;-66
2022/07/24 06:13:04;;;;;;;1.80;1.40;;;19.60;99.90;;;;;;5075272;28;20174;-64
2022/07/24 06:15:30;;;;;;;2.25;1.70;;;19.90;99.90;;;;;;5092709;28;20209;-63
2022/07/24 06:17:56;;;;;;;2.42;1.70;;;20.10;99.90;;;;;;5075174;28;20239;-64
2022/07/24 06:20:22;;;;;;;2.17;1.70;;;20.30;99.90;;;;;;5093005;28;20623;-64
2022/07/24 06:22:47;;;;;;;2.08;1.80;;;20.30;99.90;;;;;;5075060;28;20582;-60
2022/07/24 06:25:14;;;;;;;2.72;1.83;;;20.20;99.90;;;;;;5092783;28;20178;-59
2022/07/24 06:27:45;;;;;;;2.45;1.65;;;20.10;99.90;;;;;;5075079;28;20311;-62
2022/07/24 06:30:18;;;;;;;3.92;1.65;;;20.00;99.90;;;;;;5077266;28;20287;-64
2022/07/24 06:32:45;;;;;;;2.55;1.42;;;20.10;99.90;;;;;;5072945;28;20178;-62
2022/07/24 06:35:11;;;;;;;2.53;1.75;;;20.10;99.90;;;;;;5054781;28;20611;-63
2022/07/24 06:37:37;;;;;;;1.92;1.73;;;20.30;99.90;;;;;;5072490;28;20177;-62
2022/07/24 06:40:04;;;;;;;2.70;2.17;;;20.60;99.90;;;;;;5055104;28;20179;-64
2022/07/24 06:42:30;;;;;;;2.10;1.70;;;20.90;99.90;;;;;;5071381;28;20686;-61
2022/07/24 06:44:55;;;;;;;2.65;1.90;;;20.90;99.90;;;;;;5072310;28;20175;-62
2022/07/24 06:47:21;;;;;;;2.80;2.05;;;21.20;99.90;;;;;;5052296;28;20175;-57
2022/07/24 06:49:47;;;;;;;2.53;2.00;;;21.40;99.90;;;;;;5072815;28;20181;-54
2022/07/24 06:52:13;;;;;;;2.70;1.42;;;21.70;99.90;;;;;;5054374;28;20206;-61
2022/07/24 06:54:38;;;;;;;2.13;1.60;;;21.70;99.90;;;;;;5071326;28;20190;-61
2022/07/24 06:57:04;;;;;;;2.00;1.50;;;21.80;99.90;;;;;;5072929;28;20694;-63
2022/07/24 06:59:30;;;;;;;1.42;1.33;;;22.10;99.90;;;;;;5072884;28;20536;-61
2022/07/24 07:01:56;;;;;;;1.77;1.52;;;22.30;99.90;;;;;;5072835;28;20710;-62
2022/07/24 07:04:21;;;;;;;1.88;1.48;;;22.40;99.90;;;;;;5054884;28;20520;-61
2022/07/24 07:06:47;;;;;;;1.52;1.17;;;22.50;99.90;;;;;;5072716;28;20174;-62
2022/07/24 07:09:13;;;;;;;1.67;1.20;;;22.50;99.90;;;;;;5058143;28;20178;-61
2022/07/24 07:11:38;;;;;;;2.72;1.50;;;22.70;99.90;;;;;;5076435;28;20625;-61
2022/07/24 07:14:04;;;;;;;1.08;0.98;;;22.80;99.90;;;;;;5058542;28;20220;-61
2022/07/24 07:16:30;;;;;;;2.05;1.30;;;23.10;99.90;;;;;;5076312;28;20640;-61
2022/07/24 07:18:55;;;;;;;1.30;1.00;;;23.00;99.90;;;;;;5076238;28;20170;-61
2022/07/24 07:21:21;;;;;;;1.60;1.33;;;23.00;99.90;;;;;;5075978;28;20266;-61
2022/07/24 07:23:47;;;;;;;1.27;1.00;;;23.20;99.90;;;;;;5058613;28;20179;-61
2022/07/24 07:26:12;;;;;;;1.55;1.20;;;23.30;99.90;;;;;;5058299;28;20170;-61
2022/07/24 07:28:38;;;;;;;1.20;1.10;;;23.10;99.90;;;;;;5058160;28;20257;-61
2022/07/24 07:31:04;;;;;;;1.70;1.10;;;23.10;99.90;;;;;;5058280;28;20181;-61
2022/07/24 07:33:29;;;;;;;1.30;1.20;;;23.40;99.90;;;;;;5058006;28;20179;-60
2022/07/24 07:35:55;;;;;;;1.15;1.05;;;23.60;99.90;;;;;;5075861;28;20252;-61
2022/07/24 07:38:21;;;;;;;1.60;1.20;;;23.80;99.90;;;;;;5058397;28;20170;-61
2022/07/24 07:40:47;;;;;;;1.23;1.13;;;23.90;99.90;;;;;;5058154;28;20268;-61
2022/07/24 07:43:12;;;;;;;1.45;1.13;;;24.10;99.90;;;;;;5058088;28;20202;-62
2022/07/24 07:45:38;;;;;;;2.22;1.10;;;23.90;99.90;;;;;;5075975;28;20232;-62
2022/07/24 07:48:04;;;;;;;1.48;1.20;;;23.80;99.90;;;;;;5075656;28;20175;-61
2022/07/24 07:50:30;;;;;;;0.80;0.80;;;23.90;99.90;;;;;;5075520;28;20254;-61
2022/07/24 07:52:56;;;;;;;1.20;1.00;;;24.20;99.90;;;;;;5075362;28;20270;-61
2022/07/24 07:55:21;;;;;;;1.20;1.10;;;24.30;99.90;;;;;;5057682;28;20216;-61
2022/07/24 07:57:48;;;;;;;1.10;1.00;;;24.20;99.90;;;;;;5075661;28;20233;-61
2022/07/24 08:00:14;;;;;;;1.10;1.00;;;24.10;99.90;;;;;;5075451;28;20171;-61
2022/07/24 08:02:40;;;;;;;1.73;1.05;;;24.20;99.90;;;;;;5057717;28;20177;-61
2022/07/24 08:05:06;;;;;;;0.98;0.90;;;24.30;99.90;;;;;;5057287;28;20183;-61
2022/07/24 08:07:32;;;;;;;1.17;1.08;;;24.60;99.90;;;;;;5075144;28;20224;-61
2022/07/24 08:09:58;;;;;;;1.13;0.80;;;24.70;99.50;;;;;;5057375;28;20199;-61
2022/07/24 08:12:24;;;;;;;1.40;0.85;;;24.80;99.50;;;;;;5040787;28;20167;-61
2022/07/24 08:14:49;;;;;;;0.70;0.60;;;24.90;99.90;;;;;;5075166;28;20199;-61
2022/07/24 08:17:15;;;;;;;1.02;0.90;;;24.90;99.30;;;;;;5057236;28;20631;-61
2022/07/24 08:19:41;;;;;;;1.45;0.80;;;25.30;99.90;;;;;;5075008;28;20201;-59
2022/07/24 08:22:08;;;;;;;1.42;0.82;;;25.30;99.00;;;;;;5040901;28;20206;-61
2022/07/24 08:24:33;;;;;;;0.98;0.90;;;25.50;98.50;;;;;;5040596;28;20178;-61
2022/07/24 08:26:59;;;;;;;0.82;0.77;;;25.30;98.50;;;;;;5075004;28;20170;-61
2022/07/24 08:29:26;;;;;;;0.80;0.80;;;25.50;97.90;;;;;;5074771;28;20213;-61
2022/07/24 08:31:52;;;;;;;0.90;0.90;;;25.70;97.50;;;;;;5057053;28;20181;-61
2022/07/24 08:34:18;;;;;;;1.00;0.90;;;25.80;98.70;;;;;;5074541;28;20198;-61
2022/07/24 08:36:45;;;;;;;1.30;0.90;;;25.90;98.30;;;;;;5057062;28;20174;-61
2022/07/24 08:39:15;;;;;;;0.85;0.60;;;25.70;97.40;;;;;;5074688;28;20262;-61
2022/07/24 08:41:42;;;;;;;0.95;0.88;;;25.80;98.50;;;;;;5074749;28;20190;-61
2022/07/24 08:44:08;;;;;;;0.93;0.88;;;25.90;97.30;;;;;;5074502;28;20624;-61
2022/07/24 08:46:38;;;;;;;0.80;0.80;;;26.10;97.70;;;;;;5074402;28;20179;-61
2022/07/24 08:49:08;;;;;;;0.82;0.82;;;26.20;98.20;;;;;;5074395;28;20173;-61
2022/07/24 08:51:36;;;;;;;1.55;0.70;;;26.20;97.40;;;;;;5056912;28;20190;-61
2022/07/24 08:54:02;;;;;;;1.58;1.10;;;26.30;98.00;;;;;;5074425;28;20205;-61
2022/07/24 08:56:29;;;;;;;1.13;1.00;;;26.30;97.20;;;;;;5040064;28;20217;-61
2022/07/24 08:58:55;;;;;;;2.28;1.27;;;26.40;98.00;;;;;;5074273;28;20174;-61
2022/07/24 09:01:21;;;;;;;1.00;0.90;;;26.40;96.30;;;;;;5074060;28;20183;-61
2022/07/24 09:03:47;;;;;;;0.70;0.70;;;26.50;97.70;;;;;;5039768;28;20631;-61
2022/07/24 09:06:14;;;;;;;1.10;1.00;;;26.80;97.20;;;;;;5074194;28;20179;-61
2022/07/24 09:08:41;;;;;;;1.00;0.80;;;26.90;96.40;;;;;;5056452;28;20230;-61
2022/07/24 09:11:09;;;;;;;2.13;0.90;;;27.00;96.60;;;;;;5056216;28;20580;-60
2022/07/24 09:16:35;;;;;;;1.05;0.93;;;27.00;96.20;;;;;;5073401;28;20206;-61
2022/07/24 09:19:08;;;;;;;1.08;0.85;;;27.30;96.50;;;;;;5056463;28;20190;-61
2022/07/24 09:21:37;;;;;;;2.55;1.10;;;27.20;95.30;;;;;;5056281;28;20730;-61
2022/07/24 09:24:32;;;;;;;1.15;0.80;;;27.20;95.80;;;;;;5073849;28;20171;-61
2022/07/24 09:26:58;;;;;;;1.63;0.88;;;27.30;96.80;;;;;;5052413;28;20187;-61
2022/07/24 09:29:25;;;;;;;0.93;0.80;;;27.50;96.50;;;;;;5056102;28;20167;-61
2022/07/24 09:31:52;;;;;;;1.02;0.90;;;27.50;95.90;;;;;;5055551;28;20676;-61
2022/07/24 09:34:18;;;;;;;1.00;0.80;;;27.70;96.30;;;;;;5073546;28;20209;-60
2022/07/24 09:37:03;;;;;;;1.40;0.98;;;27.90;95.30;;;;;;5073553;28;20174;-60
2022/07/24 09:39:32;;;;;;;1.02;0.85;;;28.20;95.70;;;;;;5073771;28;20170;-60
2022/07/24 09:42:01;;;;;;;0.70;0.70;;;28.40;96.00;;;;;;5073628;28;20171;-61
2022/07/24 09:44:29;;;;;;;0.90;0.80;;;28.60;95.70;;;;;;5073519;28;20224;-61
2022/07/24 09:47:04;;;;;;;0.95;0.70;;;28.80;95.10;;;;;;5073479;28;20178;-61
2022/07/24 09:49:31;;;;;;;1.67;1.08;;;28.50;94.60;;;;;;5073412;28;20166;-60
2022/07/24 09:52:05;;;;;;;0.70;0.63;;;28.40;95.10;;;;;;5073251;28;20204;-61
2022/07/24 09:54:33;;;;;;;0.95;0.80;;;28.50;93.80;;;;;;5073387;28;20209;-61
2022/07/24 09:57:21;;;;;;;0.75;0.73;;;28.70;94.30;;;;;;5073492;28;20246;-62
2022/07/24 09:59:53;;;;;;;0.73;0.60;;;28.70;93.80;;;;;;5073213;28;20175;-61
2022/07/24 10:02:20;;;;;;;1.25;0.80;;;29.10;94.40;;;;;;5073289;28;20178;-61
2022/07/24 10:04:49;;;;;;;0.70;0.70;;;29.20;93.90;;;;;;5073304;28;20674;-61
2022/07/24 10:07:17;;;;;;;1.77;0.80;;;29.20;93.80;;;;;;5073251;28;20182;-61
2022/07/24 10:09:46;;;;;;;0.77;0.77;;;29.20;93.50;;;;;;5072962;28;20268;-61
2022/07/24 10:12:17;;;;;;;0.68;0.68;;;29.20;93.70;;;;;;5073088;28;20183;-61
2022/07/24 10:14:45;;;;;;;0.70;0.70;;;29.10;93.70;;;;;;5073250;28;20733;-61
2022/07/24 10:17:13;;;;;;;0.73;0.73;;;29.00;93.30;;;;;;5038743;28;20178;-61
2022/07/24 10:19:46;;;;;;;0.80;0.80;;;29.10;92.60;;;;;;5073207;28;20242;-61
2022/07/24 10:22:23;;;;;;;0.80;0.70;;;29.20;93.50;;;;;;5073181;28;20240;-61
2022/07/24 10:24:55;;;;;;;0.80;0.80;;;29.30;93.60;;;;;;5055408;28;20193;-61
2022/07/24 10:27:42;;;;;;;0.85;0.50;;;29.30;92.50;;;;;;5073226;28;20636;-61
2022/07/24 10:30:10;;;;;;;0.98;0.90;;;29.40;93.20;;;;;;5072908;28;20524;-61
2022/07/24 10:32:37;;;;;;;1.63;0.85;;;29.40;92.70;;;;;;5072978;28;20162;-61
2022/07/24 10:35:12;;;;;;;1.05;0.95;;;29.40;92.70;;;;;;5072775;28;20293;-61
2022/07/24 10:37:47;;;;;;;0.75;0.70;;;29.50;93.10;;;;;;5073179;28;20223;-61
2022/07/24 10:40:28;;;;;;;0.70;0.70;;;29.30;91.90;;;;;;5073157;28;20182;-61
2022/07/24 10:43:05;;;;;;;1.90;0.80;;;29.40;91.80;;;;;;5074215;28;20177;-61
2022/07/24 10:45:44;;;;;;;1.33;0.80;;;29.50;92.60;;;;;;5076810;28;20227;-61
2022/07/24 10:48:25;;;;;;;1.08;0.90;;;29.40;92.30;;;;;;5077023;28;20159;-61
2022/07/24 10:50:57;;;;;;;0.70;0.68;;;29.50;92.30;;;;;;5076793;28;20178;-62
2022/07/24 10:53:23;;;;;;;0.77;0.77;;;29.70;93.00;;;;;;5076750;28;20175;-62
2022/07/24 10:55:49;;;;;;;1.00;0.70;;;29.60;92.00;;;;;;5058630;28;20561;-62
2022/07/24 10:58:16;;;;;;;1.10;0.85;;;29.70;92.10;;;;;;5076471;28;20175;-61
2022/07/24 11:00:47;;;;;;;1.00;0.73;;;29.90;92.80;;;;;;5076685;28;20178;-61
2022/07/24 11:03:29;;;;;;;0.80;0.80;;;30.00;91.90;;;;;;5076451;28;20508;-61
2022/07/24 11:06:02;;;;;;;0.50;0.50;;;30.00;92.10;;;;;;5076469;28;20224;-61
2022/07/24 11:08:30;;;;;;;1.00;0.65;;;30.00;91.50;;;;;;5076374;28;20171;-61
2022/07/24 11:11:13;;;;;;;0.70;0.70;;;30.10;91.80;;;;;;5076126;28;20247;-61
2022/07/24 11:13:41;;;;;;;0.85;0.50;;;30.10;91.80;;;;;;5076412;28;20250;-61
2022/07/24 11:16:16;;;;;;;0.65;0.65;;;30.20;91.20;;;;;;5058814;28;20202;-61
2022/07/24 11:18:47;;;;;;;0.75;0.60;;;30.20;91.70;;;;;;5076214;28;20174;-61
2022/07/24 11:21:43;;;;;;;0.73;0.70;;;30.30;91.80;;;;;;5076430;28;20170;-61
2022/07/24 11:24:19;;;;;;;0.60;0.60;;;30.30;91.10;;;;;;5076206;28;20166;-61
2022/07/24 11:26:48;;;;;;;0.70;0.70;;;30.20;90.80;;;;;;5076108;28;20169;-61
2022/07/24 11:29:14;;;;;;;1.05;0.65;;;30.20;90.30;;;;;;5075956;28;20170;-61
2022/07/24 11:31:42;;;;;;;0.70;0.70;;;30.30;90.80;;;;;;5075835;28;20167;-61
2022/07/24 11:34:09;;;;;;;1.02;0.80;;;30.40;90.20;;;;;;5058079;28;20273;-61
2022/07/24 11:36:36;;;;;;;0.60;0.60;;;30.40;90.80;;;;;;5075986;28;20178;-61
2022/07/24 11:39:03;;;;;;;0.63;0.52;;;30.50;91.10;;;;;;5058003;28;20282;-62
2022/07/24 11:41:42;;;;;;;1.83;0.88;;;30.60;90.70;;;;;;5075857;28;20177;-60
2022/07/24 11:44:08;;;;;;;1.20;0.75;;;31.00;91.20;;;;;;5060017;28;20178;-61
2022/07/24 11:46:39;;;;;;;0.93;0.73;;;31.00;90.50;;;;;;5075707;28;20239;-61
2022/07/24 11:49:06;;;;;;;0.63;0.57;;;30.80;90.40;;;;;;5075748;28;20181;-60
2022/07/24 11:51:47;;;;;;;1.00;0.80;;;30.90;90.60;;;;;;5075669;28;20181;-61
2022/07/24 11:54:19;;;;;;;0.80;0.80;;;30.90;89.50;;;;;;5075026;28;20636;-59
2022/07/24 11:56:45;;;;;;;0.95;0.60;;;30.80;88.40;;;;;;5075735;28;20175;-61
2022/07/24 11:59:31;;;;;;;0.50;0.50;;;30.80;89.60;;;;;;5075531;28;20575;-61
2022/07/24 12:02:06;;;;;;;0.82;0.82;;;30.90;89.10;;;;;;5057859;28;20175;-61
2022/07/24 12:04:33;;;;;;;0.80;0.80;;;30.80;89.10;;;;;;5075373;28;20257;-61
2022/07/24 12:06:59;;;;;;;0.68;0.68;;;31.00;90.20;;;;;;5057494;28;20171;-61
2022/07/24 12:09:26;;;;;;;0.95;0.75;;;30.90;90.00;;;;;;5075327;28;20213;-61
2022/07/24 12:11:52;;;;;;;0.65;0.65;;;31.00;90.70;;;;;;5075254;28;20206;-61
2022/07/24 12:14:20;;;;;;;1.10;0.63;;;31.20;90.10;;;;;;5057344;28;20536;-61
2022/07/24 12:16:54;;;;;;;0.63;0.63;;;31.20;89.10;;;;;;5075271;28;20224;-61
2022/07/24 12:19:22;;;;;;;0.85;0.85;;;31.40;88.70;;;;;;5057269;28;20224;-61
2022/07/24 12:21:53;;;;;;;0.95;0.63;;;31.40;88.30;;;;;;5075264;28;20178;-61
2022/07/24 12:24:21;;;;;;;0.85;0.60;;;31.20;88.80;;;;;;5075250;28;20191;-61
2022/07/24 12:26:57;;;;;;;0.90;0.70;;;31.20;88.30;;;;;;5075065;28;20204;-61
2022/07/24 12:29:25;;;;;;;0.60;0.60;;;31.40;88.40;;;;;;5074379;28;20178;-61
2022/07/24 12:32:15;;;;;;;1.17;0.73;;;31.30;89.40;;;;;;5074901;28;20170;-61
2022/07/24 12:34:48;;;;;;;1.85;0.77;;;31.40;89.20;;;;;;5074775;28;20207;-61
2022/07/24 12:37:19;;;;;;;0.60;0.60;;;31.40;89.10;;;;;;5056976;28;20178;-61
2022/07/24 12:39:52;;;;;;;0.82;0.82;;;31.50;88.20;;;;;;5074915;28;20178;-61
2022/07/24 12:42:29;;;;;;;0.70;0.70;;;31.50;89.00;;;;;;5074631;28;20178;-60
2022/07/24 12:45:08;;;;;;;0.80;0.80;;;31.60;88.10;;;;;;5074802;28;20174;-61
2022/07/24 12:47:35;;;;;;;0.70;0.70;;;31.30;88.30;;;;;;5074694;28;20183;-61
2022/07/24 12:50:12;;;;;;;0.82;0.82;;;31.40;88.10;;;;;;5074538;28;20262;-61
2022/07/24 12:52:38;;;;;;;0.80;0.80;;;31.30;88.00;;;;;;5074668;28;20174;-61